27 de mayo de 2022

Hora Código Tiempo Temp. Visibilidad Cielo nuboso Viento METAR/SPECI
11:12 p. m.
M
66 °F 8 mi 2.500 ft 220° 220° 9 kt METAR CYUL 280312Z 22009KT 8SM -RA FEW003 SCT008 BKN025 OVC050 19/18 A2960 RMK SF1SF2SC3SC2 SLP026 DENSITY ALT 1000FT
11:00 p. m.
I
66 °F 6 mi 800 ft 250° 250° 8 kt METAR CYUL 280300Z 25008KT 200V260 6SM -RA BR SCT004 BKN008 OVC020 19/19 A2960 RMK SF3SC3SC2 SLP025 DENSITY ALT 1000FT
10:52 p. m.
I
66 °F 6 mi 800 ft 210° 210° 5 kt METAR CYUL 280252Z 21005KT 6SM -RA BR FEW004 BKN008 OVC025 19/19 A2960 RMK SF2SC4SC2 SLP024 DENSITY ALT 1100FT
10:00 p. m.
V
68 °F 10 mi 8.500 ft 180° 180° 6 kt METAR CYUL 280200Z 18006KT 10SM -RA FEW025 SCT050 BKN085 OVC120 20/19 A2960 RMK SC1SC3AC3AS2 SC TR SLP027 DENSITY ALT 1100FT
9:00 p. m.
V
68 °F 10 mi 11.000 ft 170° 170° 5 kt METAR CYUL 280100Z 17005KT 10SM -RA FEW048 BKN110 OVC130 20/18 A2962 RMK SC1AC5AS3 SC TR SLP031 DENSITY ALT 1100FT
8:23 p. m.
V
68 °F 15 mi 7.500 ft 210° 210° 4 kt METAR CYUL 280023Z 21004KT 15SM -SHRA SCT025 OVC075 20/18 A2963 RMK SC3AS5 CU EMBD SLP035 DENSITY ALT 1100FT
8:00 p. m.
M
68 °F 15 mi 2.800 ft 230° 230° 3 kt METAR CYUL 280000Z 23003KT 15SM FEW008 BKN028 OVC095 20/18 A2964 RMK CF1SC5AS3 CF TR CU EMBD SLP039 DENSITY ALT 1100FT
7:00 p. m.
V
70 °F 15 mi 12.000 ft 230° 230° 6 kt METAR CYUL 272300Z 23006KT 15SM VCSH FEW008 BKN120 OVC140 21/18 A2964 RMK CF1AC6AS2 CF TR SHWR E-SE SLP040 DENSITY ALT 1200FT
6:00 p. m.
V
70 °F 15 mi 9.500 ft 210° 210° 9 kt METAR CYUL 272200Z 21009KT 15SM FEW008 BKN095 OVC150 21/18 A2966 RMK CF1AC7AS1 CF TR SLP045 DENSITY ALT 1200FT
5:46 p. m.
V
70 °F 15 mi 10.000 ft 220° 220° 10 kt METAR CYUL 272146Z 22010KT 15SM FEW008 BKN100 OVC150 21/18 A2967 RMK CF1AC7AS1 CF TR SLP048 DENSITY ALT 1200FT
5:00 p. m.
V
70 °F 15 mi 9.000 ft 220° 220° 12 kt METAR CYUL 272100Z 22012KT 15SM -RA FEW008 FEW050 BKN090 OVC250 21/19 A2968 RMK CF1SC1AC3CI3 SLP052 DENSITY ALT 1200FT
4:00 p. m.
V
68 °F 12 mi 8.500 ft 220° 220° 9 kt METAR CYUL 272000Z 22009KT 12SM -RA FEW007 SCT060 OVC085 20/19 A2968 RMK SF1SC2AS5 SLP053 DENSITY ALT 1100FT
3:00 p. m.
V
68 °F 12 mi 6.000 ft 210° 210° 12 kt METAR CYUL 271900Z 21012KT 12SM -RA FEW007 FEW045 BKN060 OVC090 20/19 A2970 RMK SF1SC1SC5AS1 SLP060 DENSITY ALT 1000FT
2:00 p. m.
V
68 °F 8 mi 6.500 ft 220° 220° 13 - 20 kt METAR CYUL 271800Z 22013G20KT 8SM -RA BR FEW007 FEW015 BKN065 OVC080 20/19 A2971 RMK SF1SC1SC6AS1 SF TR /R10/ SLP062 DENSITY ALT 1000FT
1:38 p. m.
I
68 °F 1¾ mi 3.200 ft 240° 240° 11 kt METAR CYUL 271738Z 24011KT 1 3/4SM -RA BR FEW008 OVC032 20/19 A2971 RMK SF2SC6 SLP063 DENSITY ALT 1000FT
1:00 p. m.
V
68 °F 10 mi 4.000 ft 220° 220° 11 - 17 kt METAR CYUL 271700Z 22011G17KT 10SM -RA FEW008 BKN040 OVC068 20/19 A2972 RMK SF1SC5AS3 SF TR SLP065 DENSITY ALT 1000FT
12:23 p. m.
V
68 °F 5 mi 5.200 ft 200° 200° 13 kt METAR CYUL 271623Z 20013KT 5SM -RA BR FEW009 SCT018 OVC052 20/19 A2973 RMK SF2SC2SC4 SLP068 DENSITY ALT 1000FT
12:00 p. m.
M
68 °F 4 mi 1.100 ft 180° 180° 9 kt METAR CYUL 271600Z 18009KT 4SM -RA BR BKN011 OVC020 20/19 A2973 RMK SF6SC2 SLP069 DENSITY ALT 900FT
11:19 a. m.
M
66 °F 10 mi 2.500 ft 170° 170° 8 kt METAR CYUL 271519Z 17008KT 10SM -RA FEW007 BKN025 OVC055 19/19 A2973 RMK SF2SC5SC1 SLP071 DENSITY ALT 900FT
11:00 a. m.
I
66 °F 10 mi 700 ft 200° 200° 9 kt METAR CYUL 271500Z 20009KT 10SM -RA BKN007 OVC024 19/19 A2974 RMK ST6SC2 SLP073 DENSITY ALT 900FT
10:38 a. m.
M
66 °F 10 mi 2.500 ft 200° 200° 11 kt METAR CYUL 271438Z 20011KT 10SM -RA FEW007 OVC025 19/18 A2975 RMK SF1SC8 SF TR SLP076 DENSITY ALT 800FT
10:29 a. m.
I
66 °F 2½ mi 700 ft 200° 200° 10 kt METAR CYUL 271429Z 20010KT 2 1/2SM RA BR BKN007 OVC022 19/18 A2975 RMK SF6SC2 SLP077 DENSITY ALT 800FT
10:14 a. m.
I
66 °F 3 mi 1.000 ft 180° 180° 9 kt METAR CYUL 271414Z 18009KT 3SM RA BR OVC010 19/18 A2975 RMK SF8 SLP076 DENSITY ALT 800FT
10:00 a. m.
I
66 °F 2½ mi 1.100 ft 160° 160° 8 kt METAR CYUL 271400Z 16008KT 2 1/2SM RA BR BKN011 OVC020 19/18 A2975 RMK SF7SC1 SLP076 DENSITY ALT 800FT
9:52 a. m.
M
64 °F 6 mi 1.300 ft 170° 170° 7 kt METAR CYUL 271352Z 17007KT 6SM -RA BR BKN013 OVC020 18/18 A2975 RMK SF7SC1 SLP076 DENSITY ALT 800FT
9:00 a. m.
M
64 °F 12 mi 2.000 ft 160° 160° 8 kt METAR CYUL 271300Z 16008KT 12SM -RA BKN020 OVC037 18/17 A2976 RMK SC6SC2 SLP080 DENSITY ALT 700FT
8:00 a. m.
V
63 °F 7 mi 3.500 ft 150° 150° 10 kt METAR CYUL 271200Z 15010KT 7SM -RA BKN035 OVC042 17/16 A2977 RMK SC6SC2 SLP082 DENSITY ALT 600FT
7:00 a. m.
M
63 °F 12 mi 2.800 ft 150° 150° 10 kt METAR CYUL 271100Z 15010KT 12SM -RA OVC028 17/16 A2978 RMK SC8 SLP085 DENSITY ALT 600FT
6:00 a. m.
M
63 °F 7 mi 2.700 ft 150° 150° 8 kt METAR CYUL 271000Z 15008KT 7SM -RA OVC027 17/17 A2979 RMK SC8 SLP089 DENSITY ALT 600FT
5:00 a. m.
M
64 °F 15 mi 2.500 ft 200° 200° 10 kt METAR CYUL 270900Z 20010KT 15SM -SHRA OVC025 18/16 A2979 RMK SC8 CVCYV CLD EMBD SLP091 DENSITY ALT 700FT
4:00 a. m.
V
68 °F 15 mi 3.200 ft 200° 200° 8 kt METAR CYUL 270800Z 20008KT 15SM -SHRA OVC032 20/15 A2980 RMK SC8 CVCTV CLD EMBD SLP092 DENSITY ALT 900FT
3:48 a. m.
V
68 °F 15 mi 3.300 ft 210° 210° 7 kt METAR CYUL 270748Z 21007KT 15SM -SHRA OVC033 20/15 A2980 RMK SC8 CVCTV CLD EMBD SLP092 DENSITY ALT 900FT
3:00 a. m.
V
68 °F 15 mi 6.000 ft 210° 210° 8 kt METAR CYUL 270700Z 21008KT 15SM BKN060 OVC100 20/16 A2980 RMK SC6AC2 SLP094 DENSITY ALT 900FT
2:00 a. m.
V
68 °F 15 mi 6.200 ft 170° 170° 8 kt METAR CYUL 270600Z 17008KT 15SM BKN062 BKN100 OVC130 20/14 A2980 RMK SC5AC1AC2 SLP094 DENSITY ALT 900FT
1:00 a. m.
V
70 °F 15 mi 17.000 ft 170° 170° 10 kt METAR CYUL 270500Z 17010KT 15SM FEW065 FEW085 SCT130 BKN170 21/14 A2980 RMK SC1AC2AC2AC2 SC TR SLP094 DENSITY ALT 1000FT
12:00 a. m.
V
70 °F 15 mi 18.000 ft 150° 150° 8 kt METAR CYUL 270400Z 15008KT 15SM FEW070 SCT110 BKN180 BKN240 21/14 A2981 RMK AC1AC2AC3CI1 SLP097 DENSITY ALT 1000FT

26 de mayo de 2022

Hora Código Tiempo Temp. Visibilidad Cielo nuboso Viento METAR/SPECI
11:00 p. m.
V
70 °F 15 mi 5.800 ft 160° 160° 9 kt METAR CYUL 270300Z 16009KT 15SM BKN058 BKN078 OVC100 21/13 A2982 RMK SC5AC2AC1 SLP099 DENSITY ALT 1000FT
10:00 p. m.
V
70 °F 15 mi 6.000 ft 150° 150° 10 kt METAR CYUL 270200Z 15010KT 15SM BKN060 OVC100 21/13 A2983 RMK SC5AC3 SLP103 DENSITY ALT 1000FT
9:00 p. m.
V
72 °F 15 mi 5.800 ft 160° 160° 5 kt METAR CYUL 270100Z 16005KT 15SM OVC058 22/13 A2983 RMK SC8 SLP104 DENSITY ALT 1100FT
8:00 p. m.
V
72 °F 30 mi 5.300 ft 180° 180° 5 kt METAR CYUL 270000Z 18005KT 30SM BKN053 BKN070 OVC160 22/13 A2983 RMK SC5AC2AS1 SLP104 DENSITY ALT 1100FT
7:00 p. m.
V
72 °F 30 mi 5.500 ft 150° 150° 6 kt METAR CYUL 262300Z 15006KT 30SM BKN055 BKN075 BKN180 22/12 A2985 RMK SC5AS2AC1 AC TR SLP109 DENSITY ALT 1100FT
6:00 p. m.
V
72 °F 30 mi 5.200 ft 150° 150° 10 kt METAR CYUL 262200Z 15010KT 30SM BKN052 BKN070 22/12 A2986 RMK SC7AC1 AC TR SLP114 DENSITY ALT 1000FT
5:00 p. m.
V
70 °F 30 mi 4.500 ft 150° 150° 8 kt METAR CYUL 262100Z 15008KT 30SM OVC045 21/14 A2989 RMK SC8 SLP122 DENSITY ALT 900FT
4:35 p. m.
V
70 °F 15 mi 4.500 ft 140° 140° 6 kt METAR CYUL 262035Z 14006KT 15SM OVC045 21/14 A2989 RMK SC8 SLP125 DENSITY ALT 900FT
4:00 p. m.
V
68 °F 15 mi 5.000 ft 180° 180° 6 kt METAR CYUL 262000Z 18006KT 15SM -RA OVC050 20/14 A2992 RMK SC8 -RA INTMT SLP132 DENSITY ALT 800FT
3:43 p. m.
V
70 °F 30 mi 5.100 ft 180° 180° 8 kt METAR CYUL 261943Z 18008KT 30SM -RA OVC051 21/11 A2992 RMK SC8 -RA INTMT SLP132 DENSITY ALT 900FT
3:33 p. m.
V
72 °F 30 mi 5.200 ft 160° 160° 8 kt METAR CYUL 261933Z 16008KT 30SM VCSH OVC052 22/10 A2991 RMK SC8 SHWR SW-N SLP131 DENSITY ALT 1000FT
3:00 p. m.
V
72 °F 30 mi 5.700 ft 200° 200° 7 kt METAR CYUL 261900Z 20007KT 30SM -RA OVC057 22/10 A2993 RMK SC8 SLP138 DENSITY ALT 1000FT
2:00 p. m.
V
72 °F 30 mi 5.700 ft 140° 140° 10 - 16 kt METAR CYUL 261800Z 14010G16KT 30SM BKN057 OVC230 22/10 A2995 RMK SC7CI1 SLP143 DENSITY ALT 1000FT
1:00 p. m.
V
72 °F 30 mi 25.000 ft 160° 160° 10 kt METAR CYUL 261700Z 16010KT 30SM FEW170 OVC250 22/13 A2998 RMK AC2CI6 SLP155 DENSITY ALT 900FT
12:00 p. m.
V
66 °F 30 mi 24.000 ft 140° 140° 14 kt METAR CYUL 261600Z 14014KT 30SM FEW110 OVC240 19/11 A3002 RMK AC1CS7 SLP166 DENSITY ALT 600FT
11:00 a. m.
V
63 °F 30 mi 8.500 ft 150° 150° 11 kt METAR CYUL 261500Z 15011KT 30SM BKN085 OVC100 17/12 A3005 RMK AC6AS2 SLP179 DENSITY ALT 300FT
10:30 a. m.
V
61 °F 30 mi 7.500 ft 150° 150° 10 - 16 kt METAR CYUL 261430Z 15010G16KT 30SM VCSH OVC075 16/12 A3006 RMK AC8 SHWR N SLP183
10:00 a. m.
V
61 °F 30 mi 8.000 ft 150° 150° 11 kt METAR CYUL 261400Z 15011KT 30SM -RA FEW060 OVC080 16/12 A3007 RMK SC1AC8 SC TR SLP186
9:44 a. m.
V
61 °F 30 mi 8.200 ft 150° 150° 11 - 18 kt METAR CYUL 261344Z 15011G18KT 30SM -RA FEW060 OVC082 16/12 A3008 RMK SC1AC8 SC TR PRESFR SLP190
9:27 a. m.
V
59 °F 30 mi 9.000 ft 140° 140° 11 kt METAR CYUL 261327Z 14011KT 30SM SCT060 OVC090 15/13 A3010 RMK SC3AC5 SLP195
9:00 a. m.
V
59 °F 15 mi 5.500 ft 130° 130° 11 kt METAR CYUL 261300Z 13011KT 15SM OVC055 15/13 A3011 RMK SC8 INTMT -RA SLP198
8:00 a. m.
V
59 °F 15 mi 6.000 ft 130° 130° 8 kt METAR CYUL 261200Z 13008KT 15SM -RA OVC060 15/12 A3014 RMK SC8 SLP209
7:00 a. m.
V
61 °F 15 mi 6.000 ft 150° 150° 4 kt METAR CYUL 261100Z 15004KT 15SM -RA BKN060 OVC080 16/11 A3017 RMK SC7AC1 SLP218
6:00 a. m.
V
61 °F 15 mi 6.500 ft 150° 150° 3 kt METAR CYUL 261000Z 15003KT 15SM -SHRA BKN065 OVC090 16/10 A3016 RMK SC6AC2 CVCTV CLD EMBD SLP216
5:00 a. m.
V
63 °F 15 mi 10.000 ft 110° 110° 7 kt METAR CYUL 260900Z 11007KT 15SM FEW065 OVC100 17/08 A3014 RMK SC1AC7 SLP210
4:40 a. m.
V
63 °F 15 mi 6.500 ft 120° 120° 5 kt METAR CYUL 260840Z 12005KT 15SM BKN065 OVC095 17/09 A3015 RMK SC5AC3 SLP212
4:22 a. m.
V
63 °F 15 mi 9.000 ft 120° 120° 6 kt METAR CYUL 260822Z 12006KT 15SM -SHRA BKN090 OVC110 17/09 A3015 RMK AC6AC2 CVCTV CLD EMBD SLP212
4:00 a. m.
V
63 °F 15 mi 10.000 ft 110° 110° 5 kt METAR CYUL 260800Z 11005KT 15SM SCT065 OVC100 17/08 A3016 RMK SC3AC5 SLP214
3:23 a. m.
V
63 °F 15 mi 7.500 ft 120° 120° 5 kt METAR CYUL 260723Z 12005KT 15SM BKN075 OVC110 17/08 A3016 RMK AC5AC3 SLP215 DENSITY ALT 200FT
3:00 a. m.
V
63 °F 15 mi 11.000 ft 130° 130° 4 kt METAR CYUL 260700Z 13004KT 15SM -RA FEW080 OVC110 17/07 A3016 RMK AC2AC6 SLP217
2:00 a. m.
V
64 °F 15 mi 14.000 ft 140° 140° 6 kt METAR CYUL 260600Z 14006KT 15SM OVC140 18/06 A3017 RMK AC8 SLP220 DENSITY ALT 300FT
1:00 a. m.
V
66 °F 15 mi 15.000 ft 120° 120° 5 kt METAR CYUL 260500Z 12005KT 15SM FEW012 SCT075 BKN150 19/05 A3020 RMK SF1AC3AC4 SLP228 DENSITY ALT 300FT
12:00 a. m.
V
64 °F 15 mi 15.000 ft 110° 110° 3 kt METAR CYUL 260400Z 11003KT 15SM SCT075 BKN150 18/06 A3021 RMK AC3AC4 SLP233 DENSITY ALT 200FT

25 de mayo de 2022

Hora Código Tiempo Temp. Visibilidad Cielo nuboso Viento METAR/SPECI
11:00 p. m.
V
64 °F 15 mi 15.000 ft 150° 150° 5 kt METAR CYUL 260300Z 15005KT 15SM OVC150 18/06 A3023 RMK AC8 AS ASOCTD SLP238 DENSITY ALT 200FT
10:00 p. m.
V
66 °F 15 mi 24.000 ft 150° 150° 5 kt METAR CYUL 260200Z 15005KT 15SM FEW160 BKN240 19/05 A3023 RMK AC1CI5 AC TR SLP240 DENSITY ALT 300FT
9:00 p. m.
V
68 °F 15 mi 25.000 ft 140° 140° 6 kt METAR CYUL 260100Z 14006KT 15SM FEW160 OVC250 20/03 A3024 RMK AC1CI7 SLP243 DENSITY ALT 400FT
8:00 p. m.
V
70 °F 30 mi 25.000 ft 130° 130° 6 kt METAR CYUL 260000Z 13006KT 30SM FEW160 OVC250 21/04 A3024 RMK AC1CS7 SLP243 DENSITY ALT 500FT
7:00 p. m.
V
70 °F 30 mi 25.000 ft 060° 060° 3 kt METAR CYUL 252300Z 06003KT 010V180 30SM FEW160 OVC250 21/06 A3024 RMK AC1CI7 SLP242 DENSITY ALT 600FT
6:00 p. m.
V
72 °F 30 mi 25.000 ft Var Var 2 kt METAR CYUL 252200Z VRB02KT 30SM FEW180 OVC250 22/02 A3025 RMK AC1CI8 AC TR SLP247 DENSITY ALT 600FT
Datos más antiguos

Descarga nuestra aplicación

Acceso fácil a todo el tiempo de la aviación en tu teléfono móvil y tableta.
Con muchas funciones no disponibles en el sitio web, como la compatibilidad sin conexión y una lista personal de aeropuertos.

Nosotros y terceros seguimos tu comportamiento en Internet en nuestro sitio web con cookies. Si continúas, asumimos que estás de acuerdo con nuestra política de cookies. Más información